createdAt,value
2019-03-25T00:00:03.255Z,6.84
2019-03-25T00:01:03.194Z,6.84
2019-03-25T00:02:03.170Z,6.84
2019-03-25T00:03:03.165Z,6.89
2019-03-25T00:04:03.164Z,6.94
2019-03-25T00:05:03.152Z,6.95
2019-03-25T00:06:03.160Z,6.92
2019-03-25T00:07:03.124Z,6.87
2019-03-25T00:08:03.121Z,6.94
2019-03-25T00:09:05.531Z,6.91
2019-03-25T00:10:03.091Z,6.97
2019-03-25T00:11:03.136Z,6.95
2019-03-25T00:12:03.061Z,6.95
2019-03-25T00:13:03.049Z,6.95
2019-03-25T00:14:03.050Z,6.92
2019-03-25T00:15:03.033Z,6.95
2019-03-25T00:16:03.104Z,6.95
2019-03-25T00:17:03.010Z,6.99
2019-03-25T00:18:03.018Z,6.98
2019-03-25T00:19:02.998Z,6.85
2019-03-25T00:20:02.974Z,6.92
2019-03-25T00:21:03.006Z,6.94
2019-03-25T00:22:02.961Z,6.84
2019-03-25T00:23:02.937Z,6.88
2019-03-25T00:24:02.929Z,6.89
2019-03-25T00:25:02.921Z,6.87
2019-03-25T00:26:02.983Z,6.91
2019-03-25T00:27:02.897Z,6.84
2019-03-25T00:28:02.901Z,6.81
2019-03-25T00:29:02.890Z,6.87
2019-03-25T00:30:02.865Z,6.87
2019-03-25T00:31:02.877Z,6.87
2019-03-25T00:32:02.836Z,6.89
2019-03-25T00:33:02.870Z,6.85
2019-03-25T00:34:02.819Z,6.85
2019-03-25T00:35:02.807Z,6.84
2019-03-25T00:36:02.810Z,6.84
2019-03-25T00:37:02.856Z,6.77
2019-03-25T00:38:02.778Z,6.84
2019-03-25T00:39:02.759Z,6.80
2019-03-25T00:40:02.754Z,6.79
2019-03-25T00:41:02.761Z,6.81
2019-03-25T00:42:02.732Z,6.85
2019-03-25T00:43:02.722Z,6.85
2019-03-25T00:44:02.705Z,6.91
2019-03-25T00:45:02.713Z,6.79
2019-03-25T00:46:02.687Z,6.88
2019-03-25T00:47:02.751Z,6.92
2019-03-25T00:48:02.667Z,6.85
2019-03-25T00:49:02.648Z,6.81
2019-03-25T00:50:02.648Z,6.87
2019-03-25T00:51:02.652Z,6.91
2019-03-25T00:52:02.630Z,6.87
2019-03-25T00:53:02.611Z,6.88
2019-03-25T00:54:02.603Z,6.91
2019-03-25T00:55:02.612Z,6.88
2019-03-25T00:56:02.604Z,6.84
2019-03-25T00:57:02.598Z,6.81
2019-03-25T00:58:02.554Z,6.87
2019-03-25T00:59:02.547Z,6.84
2019-03-25T01:00:02.538Z,6.79
2019-03-25T01:01:02.527Z,6.85
2019-03-25T01:02:02.551Z,6.84
2019-03-25T01:03:02.500Z,6.81
2019-03-25T01:04:02.482Z,6.76
2019-03-25T01:05:02.475Z,6.77
2019-03-25T01:06:02.461Z,6.79
2019-03-25T01:07:02.474Z,6.71
2019-03-25T01:08:02.438Z,6.74
2019-03-25T01:09:02.430Z,6.71
2019-03-25T01:10:02.438Z,6.76
2019-03-25T01:11:02.445Z,6.66
2019-03-25T01:12:02.416Z,6.76
2019-03-25T01:13:02.416Z,6.70
2019-03-25T01:14:02.378Z,6.71
2019-03-25T01:15:02.370Z,6.71
2019-03-25T01:16:02.369Z,6.62
2019-03-25T01:17:02.370Z,6.67
2019-03-25T01:18:02.338Z,6.67
2019-03-25T01:19:02.314Z,6.66
2019-03-25T01:20:02.336Z,6.64
2019-03-25T01:21:02.306Z,6.59
2019-03-25T01:22:02.317Z,6.59
2019-03-25T01:23:02.280Z,6.59
2019-03-25T01:24:02.269Z,6.52
2019-03-25T01:25:02.841Z,6.56
2019-03-25T01:26:02.286Z,6.56
2019-03-25T01:27:02.268Z,6.55
2019-03-25T01:28:02.216Z,6.54
2019-03-25T01:29:02.210Z,6.44
2019-03-25T01:30:02.211Z,6.37
2019-03-25T01:31:02.194Z,6.38
2019-03-25T01:32:02.203Z,6.38
2019-03-25T01:33:02.163Z,6.34
2019-03-25T01:34:02.164Z,6.38
2019-03-25T01:35:02.172Z,6.44
2019-03-25T01:36:02.142Z,6.30
2019-03-25T01:37:02.123Z,6.40
2019-03-25T01:38:02.125Z,6.37
2019-03-25T01:39:02.133Z,6.33
2019-03-25T01:40:02.091Z,6.30
2019-03-25T01:41:02.078Z,6.30
2019-03-25T01:42:02.079Z,6.30
2019-03-25T01:43:02.069Z,6.21
2019-03-25T01:44:02.059Z,6.17
2019-03-25T01:45:02.041Z,6.17
2019-03-25T01:46:02.029Z,6.17
2019-03-25T01:47:02.022Z,6.11
2019-03-25T01:48:02.024Z,6.00
2019-03-25T01:49:01.983Z,6.04
2019-03-25T01:50:01.981Z,6.04
2019-03-25T01:51:01.962Z,5.93
2019-03-25T01:52:01.957Z,5.96
2019-03-25T01:53:01.948Z,5.86
2019-03-25T01:54:01.959Z,5.93
2019-03-25T01:55:12.702Z,5.89
2019-03-25T01:56:02.948Z,5.85
2019-03-25T01:57:01.955Z,5.82
2019-03-25T01:58:01.882Z,5.82
2019-03-25T01:59:01.891Z,5.86
2019-03-25T02:00:01.879Z,5.83
2019-03-25T02:01:01.891Z,5.78
2019-03-25T02:02:01.868Z,5.76
2019-03-25T02:03:01.834Z,5.78
2019-03-25T02:04:01.853Z,5.72
2019-03-25T02:05:01.821Z,5.74
2019-03-25T02:06:01.794Z,5.64
2019-03-25T02:07:01.782Z,5.65
2019-03-25T02:08:01.776Z,5.61
2019-03-25T02:09:01.786Z,5.67
2019-03-25T02:10:01.757Z,5.65
2019-03-25T02:11:01.785Z,5.68
2019-03-25T02:12:01.730Z,5.68
2019-03-25T02:13:01.721Z,5.57
2019-03-25T02:14:01.729Z,5.64
2019-03-25T02:15:01.699Z,5.49
2019-03-25T02:16:01.749Z,5.48
2019-03-25T02:17:01.685Z,5.51
2019-03-25T02:18:01.659Z,5.51
2019-03-25T02:19:01.665Z,5.42
2019-03-25T02:20:01.665Z,5.39
2019-03-25T02:21:01.653Z,5.38
2019-03-25T02:22:01.618Z,5.30
2019-03-25T02:23:01.808Z,5.33
2019-03-25T02:24:01.609Z,5.39
2019-03-25T02:25:01.611Z,5.31
2019-03-25T02:26:01.572Z,5.35
2019-03-25T02:27:01.569Z,5.35
2019-03-25T02:28:01.583Z,5.31
2019-03-25T02:29:01.545Z,5.25
2019-03-25T02:30:01.548Z,5.30
2019-03-25T02:31:01.517Z,5.27
2019-03-25T02:32:01.505Z,5.31
2019-03-25T02:33:01.505Z,5.24
2019-03-25T02:34:01.520Z,5.20
2019-03-25T02:35:01.491Z,5.18
2019-03-25T02:36:01.480Z,5.24
2019-03-25T02:37:01.500Z,5.20
2019-03-25T02:38:01.441Z,5.28
2019-03-25T02:39:01.438Z,5.24
2019-03-25T02:40:01.473Z,5.30
2019-03-25T02:41:01.409Z,5.31
2019-03-25T02:42:01.494Z,5.28
2019-03-25T02:43:01.437Z,5.27
2019-03-25T02:44:01.371Z,5.27
2019-03-25T02:45:01.387Z,5.28
2019-03-25T02:46:01.372Z,5.30
2019-03-25T02:47:01.340Z,5.25
2019-03-25T02:48:01.336Z,5.31
2019-03-25T02:49:01.326Z,5.30
2019-03-25T02:50:01.349Z,5.25
2019-03-25T02:51:01.322Z,5.17
2019-03-25T02:52:01.289Z,5.15
2019-03-25T02:53:01.273Z,5.15
2019-03-25T02:54:01.261Z,5.22
2019-03-25T02:55:01.253Z,5.10
2019-03-25T02:56:01.246Z,5.20
2019-03-25T02:57:01.255Z,5.15
2019-03-25T02:58:01.224Z,5.17
2019-03-25T02:59:01.234Z,5.15
2019-03-25T03:00:01.201Z,5.06
2019-03-25T03:01:01.209Z,5.17
2019-03-25T03:02:01.198Z,5.10
2019-03-25T03:03:01.186Z,5.03
2019-03-25T03:04:01.207Z,5.03
2019-03-25T03:05:01.149Z,4.99
2019-03-25T03:06:01.131Z,5.07
2019-03-25T03:07:01.157Z,5.02
2019-03-25T03:08:01.131Z,5.04
2019-03-25T03:09:01.103Z,5.06
2019-03-25T03:10:01.114Z,4.99
2019-03-25T03:11:01.112Z,5.03
2019-03-25T03:12:01.091Z,5.03
2019-03-25T03:13:01.058Z,4.97
2019-03-25T03:14:01.042Z,5.04
2019-03-25T03:15:01.044Z,4.97
2019-03-25T03:16:01.036Z,4.96
2019-03-25T03:17:01.038Z,5.06
2019-03-25T03:18:01.004Z,5.04
2019-03-25T03:19:00.991Z,5.04
2019-03-25T03:20:00.986Z,5.03
2019-03-25T03:21:00.973Z,5.02
2019-03-25T03:22:01.076Z,5.00
2019-03-25T03:23:00.957Z,5.02
2019-03-25T03:24:00.935Z,4.97
2019-03-25T03:25:00.931Z,4.91
2019-03-25T03:26:00.929Z,4.88
2019-03-25T03:27:00.920Z,4.82
2019-03-25T03:28:00.898Z,4.85
2019-03-25T03:29:00.881Z,4.88
2019-03-25T03:30:01.059Z,4.73
2019-03-25T03:31:00.957Z,4.78
2019-03-25T03:32:00.865Z,4.73
2019-03-25T03:33:00.862Z,4.80
2019-03-25T03:34:00.831Z,4.82
2019-03-25T03:35:01.114Z,4.80
2019-03-25T03:36:00.809Z,4.77
2019-03-25T03:37:00.811Z,4.69
2019-03-25T03:38:00.800Z,4.78
2019-03-25T03:39:00.782Z,4.72
2019-03-25T03:40:00.767Z,4.78
2019-03-25T03:41:00.788Z,4.80
2019-03-25T03:42:00.761Z,4.80
2019-03-25T03:43:00.759Z,4.78
2019-03-25T03:44:00.988Z,4.77
2019-03-25T03:45:00.716Z,4.72
2019-03-25T03:46:00.701Z,4.69
2019-03-25T03:47:00.693Z,4.73
2019-03-25T03:48:00.674Z,4.70
2019-03-25T03:49:00.688Z,4.63
2019-03-25T03:50:00.656Z,4.77
2019-03-25T03:51:00.645Z,4.65
2019-03-25T03:52:00.640Z,4.63
2019-03-25T03:53:00.650Z,4.60
2019-03-25T03:54:00.615Z,4.65
2019-03-25T03:55:00.611Z,4.55
2019-03-25T03:56:11.941Z,4.62
2019-03-25T03:57:01.598Z,4.66
2019-03-25T03:58:00.590Z,4.47
2019-03-25T03:59:00.578Z,4.52
2019-03-25T04:00:00.750Z,4.59
2019-03-25T04:01:00.547Z,4.47
2019-03-25T04:02:00.523Z,4.50
2019-03-25T04:03:00.546Z,4.54
2019-03-25T04:04:00.501Z,4.50
2019-03-25T04:05:00.611Z,4.51
2019-03-25T04:06:00.547Z,4.45
2019-03-25T04:07:00.473Z,4.47
2019-03-25T04:08:00.489Z,4.47
2019-03-25T04:09:00.453Z,4.41
2019-03-25T04:10:00.453Z,4.52
2019-03-25T04:11:00.431Z,4.50
2019-03-25T04:12:00.418Z,4.48
2019-03-25T04:13:00.418Z,4.48
2019-03-25T04:14:00.410Z,4.48
2019-03-25T04:15:00.465Z,4.42
2019-03-25T04:16:01.664Z,4.51
2019-03-25T04:17:00.363Z,4.41
2019-03-25T04:18:00.367Z,4.36
2019-03-25T04:19:00.357Z,4.42
2019-03-25T04:20:00.515Z,4.42
2019-03-25T04:21:00.325Z,4.42
2019-03-25T04:22:00.321Z,4.36
2019-03-25T04:23:00.297Z,4.45
2019-03-25T04:24:00.330Z,4.37
2019-03-25T04:25:00.366Z,4.37
2019-03-25T04:26:00.294Z,4.41
2019-03-25T04:27:00.260Z,4.34
2019-03-25T04:28:00.265Z,4.33
2019-03-25T04:29:00.249Z,4.32
2019-03-25T04:30:00.335Z,4.30
2019-03-25T04:31:00.228Z,4.33
2019-03-25T04:32:00.199Z,4.30
2019-03-25T04:33:00.199Z,4.26
2019-03-25T04:34:00.194Z,4.27
2019-03-25T04:35:00.325Z,4.33
2019-03-25T04:36:00.160Z,4.23
2019-03-25T04:37:00.151Z,4.27
2019-03-25T04:38:00.141Z,4.22
2019-03-25T04:39:00.152Z,4.18
2019-03-25T04:40:00.200Z,4.14
2019-03-25T04:41:00.123Z,4.14
2019-03-25T04:42:00.107Z,4.24
2019-03-25T04:43:00.085Z,4.18
2019-03-25T04:44:00.068Z,4.22
2019-03-25T04:45:00.077Z,4.12
2019-03-25T04:46:00.056Z,4.15
2019-03-25T04:47:00.041Z,4.15
2019-03-25T04:48:00.032Z,4.14
2019-03-25T04:49:00.024Z,4.00
2019-03-25T04:50:00.045Z,4.00
2019-03-25T04:50:59.992Z,4.12
2019-03-25T04:51:59.994Z,3.97
2019-03-25T04:52:59.974Z,4.09
2019-03-25T04:53:59.986Z,3.94
2019-03-25T04:54:59.952Z,4.00
2019-03-25T04:55:59.964Z,3.97
2019-03-25T04:56:59.929Z,3.91
2019-03-25T04:57:59.928Z,3.87
2019-03-25T04:58:59.908Z,3.94
2019-03-25T04:59:59.936Z,3.96
2019-03-25T05:00:59.893Z,3.94
2019-03-25T05:01:59.906Z,3.94
2019-03-25T05:02:59.868Z,3.94
2019-03-25T05:03:59.862Z,4.00
2019-03-25T05:04:59.852Z,3.96
2019-03-25T05:05:59.854Z,3.93
2019-03-25T05:06:59.879Z,3.88
2019-03-25T05:07:59.821Z,3.93
2019-03-25T05:08:59.837Z,3.90
2019-03-25T05:09:59.815Z,3.88
2019-03-25T05:10:59.796Z,3.93
2019-03-25T05:11:59.769Z,3.96
2019-03-25T05:12:59.759Z,3.98
2019-03-25T05:13:59.745Z,3.97
2019-03-25T05:14:59.751Z,4.00
2019-03-25T05:15:59.739Z,3.90
2019-03-25T05:16:59.729Z,4.06
2019-03-25T05:17:59.736Z,3.93
2019-03-25T05:18:59.702Z,4.02
2019-03-25T05:19:59.684Z,4.05
2019-03-25T05:20:59.701Z,4.04
2019-03-25T05:21:59.673Z,4.05
2019-03-25T05:22:59.648Z,4.04
2019-03-25T05:23:59.637Z,4.11
2019-03-25T05:24:59.627Z,4.00
2019-03-25T05:25:59.655Z,4.14
2019-03-25T05:26:59.605Z,4.11
2019-03-25T05:27:59.625Z,4.12
2019-03-25T05:28:59.595Z,4.24
2019-03-25T05:29:59.582Z,4.30
2019-03-25T05:30:59.560Z,4.22
2019-03-25T05:31:59.577Z,4.24
2019-03-25T05:32:59.544Z,4.20
2019-03-25T05:33:59.537Z,4.29
2019-03-25T05:34:59.554Z,4.32
2019-03-25T05:35:59.542Z,4.26
2019-03-25T05:36:59.496Z,4.36
2019-03-25T05:37:59.494Z,4.34
2019-03-25T05:38:59.474Z,4.33
2019-03-25T05:39:59.480Z,4.34
2019-03-25T05:40:59.474Z,4.47
2019-03-25T05:41:59.460Z,4.41
2019-03-25T05:42:59.452Z,4.45
2019-03-25T05:43:59.423Z,4.45
2019-03-25T05:44:59.410Z,4.54
2019-03-25T05:45:59.396Z,4.52
2019-03-25T05:46:59.407Z,4.50
2019-03-25T05:47:59.377Z,4.55
2019-03-25T05:48:59.372Z,4.45
2019-03-25T05:49:59.352Z,4.47
2019-03-25T05:50:59.353Z,4.60
2019-03-25T05:51:59.349Z,4.55
2019-03-25T05:52:59.333Z,4.60
2019-03-25T05:53:59.314Z,4.65
2019-03-25T05:54:59.295Z,4.67
2019-03-25T05:55:59.293Z,4.72
2019-03-25T05:57:02.646Z,4.72
2019-03-25T05:57:59.303Z,4.67
2019-03-25T05:58:59.268Z,4.80
2019-03-25T05:59:59.264Z,4.67
2019-03-25T06:00:59.231Z,4.70
2019-03-25T06:01:59.240Z,4.82
2019-03-25T06:02:59.221Z,4.88
2019-03-25T06:03:59.200Z,4.88
2019-03-25T06:04:59.211Z,4.89
2019-03-25T06:05:59.177Z,4.88
2019-03-25T06:06:59.189Z,4.97
2019-03-25T06:07:59.167Z,4.96
2019-03-25T06:08:59.144Z,5.02
2019-03-25T06:09:59.134Z,5.03
2019-03-25T06:10:59.126Z,4.99
2019-03-25T06:11:59.112Z,4.99
2019-03-25T06:12:59.127Z,5.10
2019-03-25T06:13:59.118Z,5.00
2019-03-25T06:14:59.111Z,5.10
2019-03-25T06:15:59.067Z,5.12
2019-03-25T06:16:59.063Z,5.07
2019-03-25T06:17:59.060Z,5.17
2019-03-25T06:18:59.043Z,5.13
2019-03-25T06:19:59.026Z,5.21
2019-03-25T06:20:59.011Z,5.21
2019-03-25T06:21:59.010Z,5.20
2019-03-25T06:22:59.045Z,5.17
2019-03-25T06:23:58.979Z,5.17
2019-03-25T06:24:58.975Z,5.18
2019-03-25T06:25:58.969Z,5.21
2019-03-25T06:26:58.962Z,5.22
2019-03-25T06:27:58.955Z,5.24
2019-03-25T06:28:58.951Z,5.27
2019-03-25T06:29:58.926Z,5.31
2019-03-25T06:30:58.923Z,5.22
2019-03-25T06:31:58.913Z,5.30
2019-03-25T06:32:58.918Z,5.30
2019-03-25T06:33:58.870Z,5.30
2019-03-25T06:34:58.856Z,5.31
2019-03-25T06:35:58.851Z,5.36
2019-03-25T06:36:58.834Z,5.31
2019-03-25T06:37:58.862Z,5.25
2019-03-25T06:38:58.834Z,5.33
2019-03-25T06:39:58.801Z,5.39
2019-03-25T06:40:58.789Z,5.31
2019-03-25T06:41:58.782Z,5.31
2019-03-25T06:42:58.775Z,5.38
2019-03-25T06:43:58.777Z,5.35
2019-03-25T06:44:58.760Z,5.43
2019-03-25T06:45:58.750Z,5.38
2019-03-25T06:46:58.739Z,5.42
2019-03-25T06:47:58.717Z,5.43
2019-03-25T06:48:58.726Z,5.49
2019-03-25T06:49:58.692Z,5.46
2019-03-25T06:50:58.680Z,5.42
2019-03-25T06:51:58.680Z,5.48
2019-03-25T06:52:58.666Z,5.46
2019-03-25T06:53:58.675Z,5.49
2019-03-25T06:54:58.644Z,5.43
2019-03-25T06:55:58.648Z,5.48
2019-03-25T06:56:58.615Z,5.46
2019-03-25T06:57:58.611Z,5.48
2019-03-25T06:58:58.636Z,5.57
2019-03-25T06:59:58.592Z,5.51
2019-03-25T07:00:58.572Z,5.58
2019-03-25T07:01:58.577Z,5.61
2019-03-25T07:02:58.551Z,5.61
2019-03-25T07:03:58.555Z,5.60
2019-03-25T07:04:58.580Z,5.68
2019-03-25T07:05:58.550Z,5.67
2019-03-25T07:06:58.565Z,5.61
2019-03-25T07:07:58.512Z,5.78
2019-03-25T07:08:58.501Z,5.76
2019-03-25T07:09:58.518Z,5.83
2019-03-25T07:10:58.489Z,5.82
2019-03-25T07:11:58.454Z,5.90
2019-03-25T07:12:58.442Z,6.01
2019-03-25T07:13:58.451Z,6.00
2019-03-25T07:14:58.443Z,5.99
2019-03-25T07:15:58.423Z,6.12
2019-03-25T07:16:58.434Z,6.21
2019-03-25T07:17:58.443Z,6.11
2019-03-25T07:18:58.384Z,6.17
2019-03-25T07:19:58.383Z,6.14
2019-03-25T07:20:58.394Z,6.36
2019-03-25T07:21:58.346Z,6.36
2019-03-25T07:22:58.339Z,6.38
2019-03-25T07:23:58.332Z,6.41
2019-03-25T07:24:58.344Z,6.34
2019-03-25T07:25:58.328Z,6.37
2019-03-25T07:26:58.307Z,6.41
2019-03-25T07:27:58.283Z,6.40
2019-03-25T07:28:58.327Z,6.38
2019-03-25T07:29:58.269Z,6.38
2019-03-25T07:30:58.274Z,6.40
2019-03-25T07:31:58.236Z,6.46
2019-03-25T07:32:58.227Z,6.40
2019-03-25T07:33:58.220Z,6.41
2019-03-25T07:34:58.215Z,6.38
2019-03-25T07:35:58.219Z,6.40
2019-03-25T07:36:58.211Z,6.41
2019-03-25T07:37:58.180Z,6.41
2019-03-25T07:39:00.156Z,6.33
2019-03-25T07:39:58.186Z,6.36
2019-03-25T07:40:58.170Z,6.38
2019-03-25T07:41:58.130Z,6.40
2019-03-25T07:42:58.217Z,6.37
2019-03-25T07:43:58.106Z,6.33
2019-03-25T07:44:58.102Z,6.34
2019-03-25T07:45:58.085Z,6.44
2019-03-25T07:46:58.116Z,6.41
2019-03-25T07:47:58.072Z,6.33
2019-03-25T07:48:58.052Z,6.40
2019-03-25T07:49:58.035Z,6.38
2019-03-25T07:50:58.027Z,6.37
2019-03-25T07:51:58.034Z,6.34
2019-03-25T07:52:58.015Z,6.43
2019-03-25T07:53:58.007Z,6.41
2019-03-25T07:54:57.988Z,6.40
2019-03-25T07:55:57.984Z,6.31
2019-03-25T07:56:57.986Z,6.36
2019-03-25T07:57:57.985Z,6.31
2019-03-25T07:58:57.951Z,6.34
2019-03-25T07:59:57.956Z,6.21
2019-03-25T08:00:57.922Z,6.19
2019-03-25T08:01:57.932Z,6.18
2019-03-25T08:02:57.906Z,6.18
2019-03-25T08:03:57.887Z,6.19
2019-03-25T08:04:57.897Z,6.19
2019-03-25T08:05:57.886Z,6.21
2019-03-25T08:06:57.845Z,6.25
2019-03-25T08:07:57.860Z,6.18
2019-03-25T08:09:03.829Z,6.17
2019-03-25T08:09:58.847Z,6.09
2019-03-25T08:10:57.817Z,6.11
2019-03-25T08:11:57.825Z,6.12
2019-03-25T08:12:57.837Z,6.11
2019-03-25T08:13:57.783Z,6.15
2019-03-25T08:14:57.818Z,6.21
2019-03-25T08:15:57.766Z,6.17
2019-03-25T08:16:57.735Z,6.19
2019-03-25T08:17:57.753Z,6.25
2019-03-25T08:18:57.737Z,6.18
2019-03-25T08:19:57.711Z,6.22
2019-03-25T08:20:57.718Z,6.37
2019-03-25T08:21:57.683Z,6.41
2019-03-25T08:22:57.689Z,6.41
2019-03-25T08:23:57.678Z,6.37
2019-03-25T08:24:57.650Z,6.43
2019-03-25T08:25:57.650Z,6.55
2019-03-25T08:26:57.625Z,6.59
2019-03-25T08:28:00.375Z,6.64
2019-03-25T08:28:57.609Z,6.77
2019-03-25T08:29:57.600Z,6.76
2019-03-25T08:30:57.583Z,6.71
2019-03-25T08:31:58.959Z,6.76
2019-03-25T08:32:57.652Z,6.84
2019-03-25T08:33:57.548Z,6.77
2019-03-25T08:34:57.548Z,6.80
2019-03-25T08:35:57.530Z,6.74
2019-03-25T08:36:57.509Z,6.85
2019-03-25T08:37:57.524Z,6.85
2019-03-25T08:38:57.488Z,6.81
2019-03-25T08:39:57.485Z,6.81
2019-03-25T08:40:57.466Z,6.84
2019-03-25T08:41:57.465Z,6.80
2019-03-25T08:42:57.467Z,6.84
2019-03-25T08:43:57.466Z,6.97
2019-03-25T08:44:57.425Z,7.02
2019-03-25T08:45:57.421Z,6.99
2019-03-25T08:46:57.399Z,6.99
2019-03-25T08:47:57.390Z,7.02
2019-03-25T08:48:57.407Z,7.10
2019-03-25T08:49:57.446Z,7.10
2019-03-25T08:50:57.357Z,7.07
2019-03-25T08:51:57.351Z,7.17
2019-03-25T08:52:57.345Z,7.23
2019-03-25T08:53:57.341Z,7.43
2019-03-25T08:54:57.320Z,7.42
2019-03-25T08:55:57.302Z,7.61
2019-03-25T08:56:57.300Z,7.82
2019-03-25T08:57:57.281Z,7.89
2019-03-25T08:58:57.311Z,7.97
2019-03-25T08:59:57.799Z,8.00
2019-03-25T09:00:57.284Z,8.05
2019-03-25T09:01:57.239Z,8.11
2019-03-25T09:02:57.251Z,8.01
2019-03-25T09:03:57.240Z,7.98
2019-03-25T09:04:57.205Z,8.11
2019-03-25T09:05:59.353Z,8.15
2019-03-25T09:06:57.189Z,8.07
2019-03-25T09:07:57.174Z,8.10
2019-03-25T09:08:57.189Z,8.16
2019-03-25T09:09:57.168Z,8.10
2019-03-25T09:10:57.150Z,8.10
2019-03-25T09:11:57.128Z,8.05
2019-03-25T09:12:57.118Z,8.10
2019-03-25T09:13:57.127Z,8.15
2019-03-25T09:14:57.114Z,8.26
2019-03-25T09:15:57.080Z,8.34
2019-03-25T09:16:59.896Z,8.52
2019-03-25T09:17:57.070Z,8.65
2019-03-25T09:18:57.061Z,8.91
2019-03-25T09:19:57.062Z,9.14
2019-03-25T09:20:57.031Z,9.31
2019-03-25T09:21:57.019Z,9.53
2019-03-25T09:22:57.042Z,9.71
2019-03-25T09:23:57.016Z,9.87
2019-03-25T09:24:56.986Z,9.79
2019-03-25T09:25:56.999Z,9.87
2019-03-25T09:26:56.974Z,9.91
2019-03-25T09:27:56.960Z,10.04
2019-03-25T09:28:56.948Z,10.04
2019-03-25T09:29:56.943Z,10.02
2019-03-25T09:30:56.932Z,10.01
2019-03-25T09:31:56.904Z,9.97
2019-03-25T09:32:56.911Z,10.01
2019-03-25T09:33:56.888Z,10.17
2019-03-25T09:34:56.903Z,10.18
2019-03-25T09:35:56.951Z,10.23
2019-03-25T09:36:56.855Z,10.22
2019-03-25T09:37:56.846Z,9.99
2019-03-25T09:38:56.834Z,10.12
2019-03-25T09:39:56.834Z,10.14
2019-03-25T09:40:56.808Z,10.36
2019-03-25T09:41:56.798Z,10.47
2019-03-25T09:42:56.793Z,10.60
2019-03-25T09:43:56.789Z,10.68
2019-03-25T09:44:56.785Z,10.91
2019-03-25T09:45:56.749Z,10.91
2019-03-25T09:46:56.750Z,11.07
2019-03-25T09:47:56.728Z,11.28
2019-03-25T09:48:56.726Z,11.24
2019-03-25T09:49:56.743Z,11.42
2019-03-25T09:50:56.716Z,11.49
2019-03-25T09:51:56.696Z,11.57
2019-03-25T09:52:56.673Z,11.60
2019-03-25T09:53:56.684Z,11.72
2019-03-25T09:54:56.651Z,11.88
2019-03-25T09:55:56.678Z,12.12
2019-03-25T09:56:56.652Z,12.13
2019-03-25T09:57:56.629Z,12.32
2019-03-25T09:58:56.611Z,12.47
2019-03-25T09:59:56.596Z,12.49
2019-03-25T10:00:56.608Z,12.46
2019-03-25T10:01:56.586Z,12.52
2019-03-25T10:02:56.577Z,12.68
2019-03-25T10:03:56.555Z,12.68
2019-03-25T10:04:56.550Z,12.65
2019-03-25T10:05:56.554Z,12.62
2019-03-25T10:06:56.546Z,12.57
2019-03-25T10:07:56.521Z,12.42
2019-03-25T10:08:56.505Z,12.27
2019-03-25T10:09:56.497Z,12.21
2019-03-25T10:10:56.493Z,12.01
2019-03-25T10:11:56.484Z,11.99
2019-03-25T10:12:56.886Z,11.91
2019-03-25T10:13:56.455Z,11.73
2019-03-25T10:14:56.439Z,11.61
2019-03-25T10:15:56.419Z,11.51
2019-03-25T10:16:56.429Z,11.29
2019-03-25T10:17:56.401Z,11.18
2019-03-25T10:18:56.395Z,10.96
2019-03-25T10:19:56.386Z,10.78
2019-03-25T10:20:56.370Z,10.67
2019-03-25T10:21:56.393Z,10.59
2019-03-25T10:22:56.345Z,10.55
2019-03-25T10:23:56.366Z,10.30
2019-03-25T10:24:56.322Z,10.22
2019-03-25T10:25:56.321Z,10.15
2019-03-25T10:26:56.327Z,10.11
2019-03-25T10:27:56.316Z,9.89
2019-03-25T10:28:56.280Z,9.71
2019-03-25T10:29:56.275Z,9.58
2019-03-25T10:30:56.260Z,9.35
2019-03-25T10:31:56.277Z,9.11
2019-03-25T10:32:56.240Z,9.02
2019-03-25T10:33:56.227Z,8.81
2019-03-25T10:34:56.234Z,8.66
2019-03-25T10:35:56.215Z,8.66
2019-03-25T10:36:56.212Z,8.56
2019-03-25T10:37:56.200Z,8.56
2019-03-25T10:38:56.195Z,8.81
2019-03-25T10:39:56.160Z,8.95
2019-03-25T10:40:56.158Z,9.08
2019-03-25T10:41:56.241Z,9.11
2019-03-25T10:42:56.140Z,9.33
2019-03-25T10:43:56.116Z,9.35
2019-03-25T10:44:56.113Z,9.35
2019-03-25T10:45:56.105Z,9.32
2019-03-25T10:46:56.086Z,9.33
2019-03-25T10:47:56.090Z,9.35
2019-03-25T10:48:56.064Z,9.31
2019-03-25T10:49:56.063Z,9.38
2019-03-25T10:50:56.071Z,9.32
2019-03-25T10:51:56.031Z,9.39
2019-03-25T10:52:56.036Z,9.53
2019-03-25T10:53:56.023Z,9.50
2019-03-25T10:55:55.990Z,9.74
2019-03-25T10:56:55.976Z,9.84
2019-03-25T10:57:55.996Z,9.84
2019-03-25T10:58:58.301Z,9.97
2019-03-25T10:59:55.956Z,10.07
2019-03-25T11:00:55.927Z,10.23
2019-03-25T11:01:55.949Z,10.30
2019-03-25T11:02:55.906Z,10.41
2019-03-25T11:03:55.913Z,10.51
2019-03-25T11:04:55.891Z,10.47
2019-03-25T11:05:55.894Z,10.47
2019-03-25T11:06:55.865Z,10.47
2019-03-25T11:07:55.887Z,10.44
2019-03-25T11:08:55.878Z,10.44
2019-03-25T11:09:55.836Z,10.38
2019-03-25T11:10:55.868Z,10.34
2019-03-25T11:11:55.806Z,10.38
2019-03-25T11:12:55.812Z,10.34
2019-03-25T11:13:55.808Z,10.34
2019-03-25T11:14:55.793Z,10.34
2019-03-25T11:15:55.784Z,10.23
2019-03-25T11:16:55.763Z,10.25
2019-03-25T11:17:55.741Z,10.12
2019-03-25T11:18:55.734Z,9.93
2019-03-25T11:19:55.733Z,9.81
2019-03-25T11:20:55.729Z,9.74
2019-03-25T11:21:55.704Z,9.66
2019-03-25T11:22:55.698Z,9.61
2019-03-25T11:23:55.689Z,9.58
2019-03-25T11:24:55.677Z,9.53
2019-03-25T11:25:55.681Z,9.40
2019-03-25T11:26:55.641Z,9.42
2019-03-25T11:27:55.634Z,9.42
2019-03-25T11:28:55.659Z,9.46
2019-03-25T11:29:55.621Z,9.35
2019-03-25T11:30:55.605Z,9.35
2019-03-25T11:31:55.614Z,9.21
2019-03-25T11:32:55.639Z,9.13
2019-03-25T11:33:55.591Z,9.11
2019-03-25T11:34:55.579Z,9.15
2019-03-25T11:35:55.559Z,9.02
2019-03-25T11:36:55.534Z,9.02
2019-03-25T11:37:55.516Z,8.95
2019-03-25T11:38:55.520Z,8.92
2019-03-25T11:39:55.517Z,8.89
2019-03-25T11:40:55.541Z,8.96
2019-03-25T11:41:55.496Z,8.99
2019-03-25T11:42:55.471Z,8.92
2019-03-25T11:43:55.450Z,8.89
2019-03-25T11:44:55.459Z,8.87
2019-03-25T11:45:55.450Z,8.94
2019-03-25T11:46:55.424Z,8.83
2019-03-25T11:47:55.413Z,8.91
2019-03-25T11:48:55.421Z,8.73
2019-03-25T11:49:55.406Z,8.66
2019-03-25T11:50:55.376Z,8.66
2019-03-25T11:51:55.370Z,8.66
2019-03-25T11:52:55.350Z,8.53
2019-03-25T11:53:55.361Z,8.66
2019-03-25T11:54:55.347Z,8.86
2019-03-25T11:55:55.344Z,9.04
2019-03-25T11:56:55.319Z,9.14
2019-03-25T11:57:55.304Z,9.31
2019-03-25T11:58:55.287Z,9.56
2019-03-25T11:59:55.291Z,9.60
2019-03-25T12:00:55.271Z,9.81
2019-03-25T12:01:55.252Z,9.87
2019-03-25T12:02:55.244Z,10.02
2019-03-25T12:03:55.238Z,10.05
2019-03-25T12:04:55.272Z,10.22
2019-03-25T12:05:55.254Z,10.18
2019-03-25T12:06:55.201Z,10.41
2019-03-25T12:07:55.185Z,10.48
2019-03-25T12:08:55.182Z,10.76
2019-03-25T12:09:55.176Z,10.85
2019-03-25T12:10:55.175Z,11.06
2019-03-25T12:11:55.147Z,11.06
2019-03-25T12:12:55.147Z,11.18
2019-03-25T12:13:55.138Z,11.21
2019-03-25T12:14:55.114Z,11.37
2019-03-25T12:15:55.124Z,11.52
2019-03-25T12:16:55.115Z,11.58
2019-03-25T12:17:55.082Z,11.70
2019-03-25T12:18:55.074Z,11.78
2019-03-25T12:19:55.081Z,11.78
2019-03-25T12:20:55.046Z,11.78
2019-03-25T12:21:55.116Z,11.90
2019-03-25T12:22:55.049Z,11.80
2019-03-25T12:23:55.014Z,11.91
2019-03-25T12:24:55.001Z,12.01
2019-03-25T12:25:55.031Z,11.75
2019-03-25T12:26:54.981Z,11.86
2019-03-25T12:27:54.985Z,11.91
2019-03-25T12:28:54.970Z,12.04
2019-03-25T12:29:54.952Z,12.12
2019-03-25T12:30:54.962Z,12.14
2019-03-25T12:31:54.934Z,12.20
2019-03-25T12:33:03.591Z,12.19
2019-03-25T12:33:55.920Z,12.19
2019-03-25T12:34:54.892Z,12.28
2019-03-25T12:35:54.897Z,12.27
2019-03-25T12:36:54.887Z,12.29
2019-03-25T12:37:54.874Z,12.23
2019-03-25T12:38:54.851Z,12.27
2019-03-25T12:39:54.835Z,12.37
2019-03-25T12:40:54.844Z,12.45
2019-03-25T12:41:54.848Z,12.42
2019-03-25T12:42:54.812Z,12.50
2019-03-25T12:43:54.796Z,12.64
2019-03-25T12:44:54.790Z,12.64
2019-03-25T12:45:54.781Z,12.70
2019-03-25T12:46:54.774Z,12.67
2019-03-25T12:47:54.756Z,12.72
2019-03-25T12:48:54.736Z,12.78
2019-03-25T12:49:54.744Z,12.86
2019-03-25T12:50:54.713Z,13.00
2019-03-25T12:51:54.721Z,13.03
2019-03-25T12:52:54.692Z,13.10
2019-03-25T12:53:54.694Z,13.17
2019-03-25T12:54:54.668Z,13.08
2019-03-25T12:55:54.665Z,13.05
2019-03-25T12:56:54.668Z,13.00
2019-03-25T12:57:54.632Z,12.82
2019-03-25T12:58:54.632Z,12.75
2019-03-25T12:59:54.609Z,12.72
2019-03-25T13:00:54.632Z,12.71
2019-03-25T13:01:54.654Z,12.71
2019-03-25T13:02:54.598Z,12.72
2019-03-25T13:03:54.563Z,12.77
2019-03-25T13:04:54.556Z,12.82
2019-03-25T13:05:54.564Z,12.72
2019-03-25T13:06:54.542Z,12.70
2019-03-25T13:07:54.534Z,12.49
2019-03-25T13:08:54.506Z,12.41
2019-03-25T13:09:54.498Z,12.28
2019-03-25T13:10:54.491Z,12.24
2019-03-25T13:11:54.476Z,12.10
2019-03-25T13:12:54.490Z,12.05
2019-03-25T13:13:54.451Z,11.99